Yoder, CO

3:32 AM MDT on August 27, 2014 (GMT -0600)
Truckton | Change Station
CLOSE
Current Station
Personal Weather Station
Location: Yoder, CO
Elevation: 5958 ft
Nearby Weather Stations

Elev 5958 ft 38.74 °N, 104.15 °W | Updated 7 minutes ago

Mostly Cloudy
Mostly Cloudy
57.2 °F
Feels Like 57.2 °F
N
2.2
Wind Variable Wind from WNW

Today
High -- | Low -- °F
--% Chance of Precip.
Yesterday
High -- | Low -- °F
Precip. -- in
6:21 AM 7:34 PM
Waxing Crescent, 3% visible
Pressure 30.02 in
Visibility 10.0 miles
Clouds Mostly Cloudy 10000 ft
Dew Point 56 °F
Humidity 95%
Rainfall 0.00 in
Snow Depth Not available.
UV 0 out of 12
Pollen 9.40 out of 12
PM2.5 Good
Flu Activity Not available.
METAR KABH 270856Z AUTO 00000KT 10SM BKN100 14/13 A3022 RMK AO2 SLP166 6//// T01440128 57015 PNO $

More Conditions Fewer Conditions

Pressure 30.02 in
Visibility 10.0 miles
Clouds Mostly Cloudy 10000 ft
Dew Point 56 °F
Humidity 95%
Rainfall 0.00 in
Snow Depth Not available.
UV 0 out of 12
Pollen 9.40 out of 12
PM2.5 Good
Flu Activity Not available.
METAR KABH 270856Z AUTO 00000KT 10SM BKN100 14/13 A3022 RMK AO2 SLP166 6//// T01440128 57015 PNO $

More Conditions Fewer Conditions

10-Day Weather Forecast

Almanac

Astronomy

Aug. 27, 2014 Rise Set
Actual Time 6:21 AM MDT 7:34 PM MDT
Civil Twilight 5:53 AM MDT 8:01 PM MDT
Nautical Twilight 5:20 AM MDT 8:34 PM MDT
Astronomical Twilight 4:46 AM MDT 9:08 PM MDT
Moon 8:18 AM MDT 8:29 PM MDT
Length of Visible Light 14h 07m
Length of Day
13h 12m
Tomorrow will be 2m 22s shorter.
Waxing Crescent, 3% of the Moon is Illuminated
Today
Waxing Crescent
Sep 2
First Quarter
Sep 8
Full
Sep 15
Last Quarter
Sep 24
New

Today's Extremes

State Highs State Lows

Community

WunderPhotos

Upload Photos

1,747,661 photos uploaded!

Nearby

Air Quality

  Air Quality AQ Index Pollutant
Yesterday Good
OZONE
Yesterday Good
PM2.5
Current Good
PM2.5
Wednesday Good
PM2.5
Wednesday Good
OZONE

Snow Depth

Station Depth Elevation
Glen Cove 0 in 11460 ft
South Colony 0 in 10800 ft
Medano Pass 0 in 9620 ft
Echo Lake 0 in 10600 ft
Ute Creek 0 in 10650 ft

Earthquake Activity

City Distance Mag. Time & Date
No recent earthquake activity has been reported nearby.
Minimum magnitude displayed is 2.5.

Coastal Water Temperatures

Place Temperature
No Stations Reporting

Nearby Weather Stations